sensor_id;sensor_type;location;lat;lon;timestamp;temperature;humidity
13496;DHT22;6820;49.374;8.452;2023-02-26T00:03:22;2.37;99.99
13496;DHT22;6820;49.374;8.452;2023-02-26T00:07:23;2.32;99.99
13496;DHT22;6820;49.374;8.452;2023-02-26T00:11:30;2.23;99.99
13496;DHT22;6820;49.374;8.452;2023-02-26T00:15:32;2.27;99.99
13496;DHT22;6820;49.374;8.452;2023-02-26T00:19:34;2.27;99.99
13496;DHT22;6820;49.374;8.452;2023-02-26T00:23:36;2.23;99.99
13496;DHT22;6820;49.374;8.452;2023-02-26T00:27:41;2.23;99.99
13496;DHT22;6820;49.374;8.452;2023-02-26T00:31:44;2.23;99.99
13496;DHT22;6820;49.374;8.452;2023-02-26T00:35:46;2.19;99.99
13496;DHT22;6820;49.374;8.452;2023-02-26T00:40:03;2.14;99.99
13496;DHT22;6820;49.374;8.452;2023-02-26T00:44:16;2.14;99.99
13496;DHT22;6820;49.374;8.452;2023-02-26T00:52:52;2.11;99.99
13496;DHT22;6820;49.374;8.452;2023-02-26T00:57:13;2.08;99.99
13496;DHT22;6820;49.374;8.452;2023-02-26T01:01:14;2.05;99.99
13496;DHT22;6820;49.374;8.452;2023-02-26T01:05:16;2.00;99.99
13496;DHT22;6820;49.374;8.452;2023-02-26T01:09:29;1.92;99.99
13496;DHT22;6820;49.374;8.452;2023-02-26T01:13:33;1.93;99.99
13496;DHT22;6820;49.374;8.452;2023-02-26T01:17:46;1.89;99.99
13496;DHT22;6820;49.374;8.452;2023-02-26T01:22:07;1.88;99.99
13496;DHT22;6820;49.374;8.452;2023-02-26T01:26:36;1.82;99.99
13496;DHT22;6820;49.374;8.452;2023-02-26T01:30:37;1.81;99.99
13496;DHT22;6820;49.374;8.452;2023-02-26T01:34:47;1.79;99.99
13496;DHT22;6820;49.374;8.452;2023-02-26T01:39:13;1.65;99.99
13496;DHT22;6820;49.374;8.452;2023-02-26T01:43:22;1.61;99.99
13496;DHT22;6820;49.374;8.452;2023-02-26T01:47:37;1.49;99.99
13496;DHT22;6820;49.374;8.452;2023-02-26T01:55:50;1.47;99.99
13496;DHT22;6820;49.374;8.452;2023-02-26T01:59:55;1.47;99.99
13496;DHT22;6820;49.374;8.452;2023-02-26T02:03:58;1.43;99.99
13496;DHT22;6820;49.374;8.452;2023-02-26T02:08:00;1.44;99.99
13496;DHT22;6820;49.374;8.452;2023-02-26T02:12:07;1.39;99.99
13496;DHT22;6820;49.374;8.452;2023-02-26T02:29:32;1.20;99.99
13496;DHT22;6820;49.374;8.452;2023-02-26T02:34:03;1.08;99.99
13496;DHT22;6820;49.374;8.452;2023-02-26T02:38:30;1.10;99.99
13496;DHT22;6820;49.374;8.452;2023-02-26T02:43:17;1.06;99.99
13496;DHT22;6820;49.374;8.452;2023-02-26T02:47:04;1.04;99.99
13496;DHT22;6820;49.374;8.452;2023-02-26T02:51:09;1.08;99.99
13496;DHT22;6820;49.374;8.452;2023-02-26T02:55:17;1.04;99.99
13496;DHT22;6820;49.374;8.452;2023-02-26T02:59:35;0.99;99.99
13496;DHT22;6820;49.374;8.452;2023-02-26T03:03:54;0.98;99.99
13496;DHT22;6820;49.374;8.452;2023-02-26T03:08:02;0.95;99.99
13496;DHT22;6820;49.374;8.452;2023-02-26T03:12:12;0.93;99.99
13496;DHT22;6820;49.374;8.452;2023-02-26T03:16:24;0.95;99.99
13496;DHT22;6820;49.374;8.452;2023-02-26T03:20:45;0.95;99.99
13496;DHT22;6820;49.374;8.452;2023-02-26T03:25:03;0.99;99.99
13496;DHT22;6820;49.374;8.452;2023-02-26T03:37:57;0.99;99.99
13496;DHT22;6820;49.374;8.452;2023-02-26T03:42:05;0.99;99.99
13496;DHT22;6820;49.374;8.452;2023-02-26T03:46:26;1.02;99.99
13496;DHT22;6820;49.374;8.452;2023-02-26T03:55:28;0.95;99.99
13496;DHT22;6820;49.374;8.452;2023-02-26T03:59:57;0.96;99.99
13496;DHT22;6820;49.374;8.452;2023-02-26T04:04:16;0.93;99.99
13496;DHT22;6820;49.374;8.452;2023-02-26T04:08:23;0.92;99.99
13496;DHT22;6820;49.374;8.452;2023-02-26T04:12:25;0.89;99.99
13496;DHT22;6820;49.374;8.452;2023-02-26T04:16:28;0.90;99.99
13496;DHT22;6820;49.374;8.452;2023-02-26T04:20:30;0.93;99.99
13496;DHT22;6820;49.374;8.452;2023-02-26T04:24:34;0.84;99.99
13496;DHT22;6820;49.374;8.452;2023-02-26T04:28:36;0.81;99.99
13496;DHT22;6820;49.374;8.452;2023-02-26T04:32:38;0.78;99.99
13496;DHT22;6820;49.374;8.452;2023-02-26T04:36:43;0.71;99.99
13496;DHT22;6820;49.374;8.452;2023-02-26T04:40:44;0.70;99.99
13496;DHT22;6820;49.374;8.452;2023-02-26T04:44:48;0.67;99.99
13496;DHT22;6820;49.374;8.452;2023-02-26T04:48:50;0.63;99.99
13496;DHT22;6820;49.374;8.452;2023-02-26T04:52:51;0.62;99.99
13496;DHT22;6820;49.374;8.452;2023-02-26T04:56:53;0.59;99.99
13496;DHT22;6820;49.374;8.452;2023-02-26T05:00:55;0.62;99.99
13496;DHT22;6820;49.374;8.452;2023-02-26T05:04:57;0.59;99.99
13496;DHT22;6820;49.374;8.452;2023-02-26T05:08:59;0.53;99.99
13496;DHT22;6820;49.374;8.452;2023-02-26T05:13:01;0.51;99.99
13496;DHT22;6820;49.374;8.452;2023-02-26T05:17:02;0.51;99.99
13496;DHT22;6820;49.374;8.452;2023-02-26T05:21:04;0.48;99.99
13496;DHT22;6820;49.374;8.452;2023-02-26T05:25:07;0.45;99.99
13496;DHT22;6820;49.374;8.452;2023-02-26T05:29:10;0.43;99.99
13496;DHT22;6820;49.374;8.452;2023-02-26T05:33:11;0.40;99.99
13496;DHT22;6820;49.374;8.452;2023-02-26T05:37:13;0.43;99.99
13496;DHT22;6820;49.374;8.452;2023-02-26T05:41:14;0.34;99.99
13496;DHT22;6820;49.374;8.452;2023-02-26T05:45:16;0.33;99.99
13496;DHT22;6820;49.374;8.452;2023-02-26T05:49:18;0.33;99.99
13496;DHT22;6820;49.374;8.452;2023-02-26T05:53:20;0.31;99.99
13496;DHT22;6820;49.374;8.452;2023-02-26T05:57:22;0.26;99.99
13496;DHT22;6820;49.374;8.452;2023-02-26T06:01:24;0.22;99.99
13496;DHT22;6820;49.374;8.452;2023-02-26T06:05:25;0.22;99.99
13496;DHT22;6820;49.374;8.452;2023-02-26T06:09:27;0.16;99.99
13496;DHT22;6820;49.374;8.452;2023-02-26T06:13:29;0.12;99.99
13496;DHT22;6820;49.374;8.452;2023-02-26T06:17:30;0.08;99.99
13496;DHT22;6820;49.374;8.452;2023-02-26T06:21:33;0.04;99.99
13496;DHT22;6820;49.374;8.452;2023-02-26T06:25:34;0.04;99.99
13496;DHT22;6820;49.374;8.452;2023-02-26T06:29:36;0.04;99.99
13496;DHT22;6820;49.374;8.452;2023-02-26T06:33:39;0.08;99.99
13496;DHT22;6820;49.374;8.452;2023-02-26T06:37:40;0.05;99.99
13496;DHT22;6820;49.374;8.452;2023-02-26T06:41:42;0.05;99.99
13496;DHT22;6820;49.374;8.452;2023-02-26T06:45:44;0.10;99.99
13496;DHT22;6820;49.374;8.452;2023-02-26T06:49:46;0.17;99.99
13496;DHT22;6820;49.374;8.452;2023-02-26T06:53:49;0.26;99.99
13496;DHT22;6820;49.374;8.452;2023-02-26T06:57:50;0.31;99.99
13496;DHT22;6820;49.374;8.452;2023-02-26T07:01:52;0.37;99.99
13496;DHT22;6820;49.374;8.452;2023-02-26T07:05:53;0.51;99.99
13496;DHT22;6820;49.374;8.452;2023-02-26T07:09:55;0.57;99.99
13496;DHT22;6820;49.374;8.452;2023-02-26T07:13:57;0.64;99.99
13496;DHT22;6820;49.374;8.452;2023-02-26T07:17:58;0.63;99.99
13496;DHT22;6820;49.374;8.452;2023-02-26T07:22:00;0.68;99.99
13496;DHT22;6820;49.374;8.452;2023-02-26T07:26:02;0.64;99.99
13496;DHT22;6820;49.374;8.452;2023-02-26T07:30:04;0.71;99.99
13496;DHT22;6820;49.374;8.452;2023-02-26T07:34:07;0.78;99.99
13496;DHT22;6820;49.374;8.452;2023-02-26T07:38:08;0.81;99.99
13496;DHT22;6820;49.374;8.452;2023-02-26T07:42:10;0.95;99.99
13496;DHT22;6820;49.374;8.452;2023-02-26T07:46:15;1.13;99.99
13496;DHT22;6820;49.374;8.452;2023-02-26T07:50:17;1.24;99.99
13496;DHT22;6820;49.374;8.452;2023-02-26T07:54:20;1.24;99.99
13496;DHT22;6820;49.374;8.452;2023-02-26T07:58:21;1.24;99.99
13496;DHT22;6820;49.374;8.452;2023-02-26T08:02:23;1.31;99.99
13496;DHT22;6820;49.374;8.452;2023-02-26T08:06:25;1.34;99.99
13496;DHT22;6820;49.374;8.452;2023-02-26T08:10:27;1.43;99.99
13496;DHT22;6820;49.374;8.452;2023-02-26T08:14:30;1.47;99.99
13496;DHT22;6820;49.374;8.452;2023-02-26T08:18:31;1.50;99.99
13496;DHT22;6820;49.374;8.452;2023-02-26T08:22:33;1.52;99.99
13496;DHT22;6820;49.374;8.452;2023-02-26T08:26:35;1.64;99.99
13496;DHT22;6820;49.374;8.452;2023-02-26T08:30:37;1.70;99.99
13496;DHT22;6820;49.374;8.452;2023-02-26T08:34:39;1.75;99.99
13496;DHT22;6820;49.374;8.452;2023-02-26T08:38:40;1.83;99.99
13496;DHT22;6820;49.374;8.452;2023-02-26T08:42:42;1.93;99.99
13496;DHT22;6820;49.374;8.452;2023-02-26T08:46:43;2.08;99.99
13496;DHT22;6820;49.374;8.452;2023-02-26T08:50:45;2.38;99.99
13496;DHT22;6820;49.374;8.452;2023-02-26T08:54:47;2.53;99.99
13496;DHT22;6820;49.374;8.452;2023-02-26T08:58:49;2.55;99.99
13496;DHT22;6820;49.374;8.452;2023-02-26T09:02:51;2.55;99.99
13496;DHT22;6820;49.374;8.452;2023-02-26T09:06:52;2.56;99.99
13496;DHT22;6820;49.374;8.452;2023-02-26T09:10:54;2.53;99.99
13496;DHT22;6820;49.374;8.452;2023-02-26T09:14:59;2.45;99.99
13496;DHT22;6820;49.374;8.452;2023-02-26T09:19:02;2.58;99.99
13496;DHT22;6820;49.374;8.452;2023-02-26T09:23:04;2.84;99.99
13496;DHT22;6820;49.374;8.452;2023-02-26T09:27:06;3.13;99.99
13496;DHT22;6820;49.374;8.452;2023-02-26T09:31:07;3.26;99.99
13496;DHT22;6820;49.374;8.452;2023-02-26T09:35:09;3.35;99.99
13496;DHT22;6820;49.374;8.452;2023-02-26T09:39:12;3.72;99.99
13496;DHT22;6820;49.374;8.452;2023-02-26T09:47:39;4.08;99.99
13496;DHT22;6820;49.374;8.452;2023-02-26T09:51:48;4.02;99.99
13496;DHT22;6820;49.374;8.452;2023-02-26T09:55:55;4.00;99.99
13496;DHT22;6820;49.374;8.452;2023-02-26T10:04:59;4.34;99.99
13496;DHT22;6820;49.374;8.452;2023-02-26T10:09:15;4.44;99.99
13496;DHT22;6820;49.374;8.452;2023-02-26T10:13:55;4.24;99.99
13496;DHT22;6820;49.374;8.452;2023-02-26T10:26:43;4.26;99.99
13496;DHT22;6820;49.374;8.452;2023-02-26T10:30:53;4.29;99.99
13496;DHT22;6820;49.374;8.452;2023-02-26T10:35:13;4.39;99.99
13496;DHT22;6820;49.374;8.452;2023-02-26T10:43:34;4.69;99.99
13496;DHT22;6820;49.374;8.452;2023-02-26T10:47:44;4.80;99.99
13496;DHT22;6820;49.374;8.452;2023-02-26T10:51:53;4.86;99.99
13496;DHT22;6820;49.374;8.452;2023-02-26T11:00:18;4.64;99.99
13496;DHT22;6820;49.374;8.452;2023-02-26T11:04:24;4.54;99.99
13496;DHT22;6820;49.374;8.452;2023-02-26T11:08:38;4.51;99.99
13496;DHT22;6820;49.374;8.452;2023-02-26T11:12:43;4.62;99.99
13496;DHT22;6820;49.374;8.452;2023-02-26T11:16:48;4.74;99.99
13496;DHT22;6820;49.374;8.452;2023-02-26T11:20:54;4.72;99.99
13496;DHT22;6820;49.374;8.452;2023-02-26T11:24:58;4.69;99.99
13496;DHT22;6820;49.374;8.452;2023-02-26T11:29:00;4.68;99.99
13496;DHT22;6820;49.374;8.452;2023-02-26T11:33:03;4.72;99.99
13496;DHT22;6820;49.374;8.452;2023-02-26T11:37:26;4.71;99.99
13496;DHT22;6820;49.374;8.452;2023-02-26T11:41:30;4.64;99.99
13496;DHT22;6820;49.374;8.452;2023-02-26T11:45:38;4.56;99.99
13496;DHT22;6820;49.374;8.452;2023-02-26T11:49:44;4.53;99.99
13496;DHT22;6820;49.374;8.452;2023-02-26T11:53:54;4.61;99.99
13496;DHT22;6820;49.374;8.452;2023-02-26T11:57:57;4.74;99.99
13496;DHT22;6820;49.374;8.452;2023-02-26T12:02:08;4.79;99.99
13496;DHT22;6820;49.374;8.452;2023-02-26T12:06:17;4.72;99.99
13496;DHT22;6820;49.374;8.452;2023-02-26T12:10:24;4.64;99.99
13496;DHT22;6820;49.374;8.452;2023-02-26T12:14:39;4.56;99.99
13496;DHT22;6820;49.374;8.452;2023-02-26T12:50:00;4.54;99.99
13496;DHT22;6820;49.374;8.452;2023-02-26T12:54:20;4.64;99.99
13496;DHT22;6820;49.374;8.452;2023-02-26T12:58:35;4.75;99.99
13496;DHT22;6820;49.374;8.452;2023-02-26T13:07:34;4.97;99.99
13496;DHT22;6820;49.374;8.452;2023-02-26T13:20:24;5.33;99.99
13496;DHT22;6820;49.374;8.452;2023-02-26T13:24:29;5.33;99.99
13496;DHT22;6820;49.374;8.452;2023-02-26T13:28:39;5.30;99.99
13496;DHT22;6820;49.374;8.452;2023-02-26T13:32:43;5.17;99.99
13496;DHT22;6820;49.374;8.452;2023-02-26T13:36:47;5.29;99.99
13496;DHT22;6820;49.374;8.452;2023-02-26T13:40:53;5.30;99.99
13496;DHT22;6820;49.374;8.452;2023-02-26T13:45:11;5.27;99.99
13496;DHT22;6820;49.374;8.452;2023-02-26T13:49:40;5.33;99.99
13496;DHT22;6820;49.374;8.452;2023-02-26T13:53:59;5.26;99.99
13496;DHT22;6820;49.374;8.452;2023-02-26T14:02:34;5.06;99.99
13496;DHT22;6820;49.374;8.452;2023-02-26T14:06:44;5.06;99.99
13496;DHT22;6820;49.374;8.452;2023-02-26T14:10:58;5.06;99.99
13496;DHT22;6820;49.374;8.452;2023-02-26T14:19:31;5.02;99.99
13496;DHT22;6820;49.374;8.452;2023-02-26T14:23:43;5.05;99.99
13496;DHT22;6820;49.374;8.452;2023-02-26T14:27:48;5.17;99.99
13496;DHT22;6820;49.374;8.452;2023-02-26T14:36:10;5.17;99.99
13496;DHT22;6820;49.374;8.452;2023-02-26T14:40:18;5.27;99.99
13496;DHT22;6820;49.374;8.452;2023-02-26T14:44:22;5.14;99.99
13496;DHT22;6820;49.374;8.452;2023-02-26T14:48:27;4.96;99.99
13496;DHT22;6820;49.374;8.452;2023-02-26T14:57:08;4.74;99.99
13496;DHT22;6820;49.374;8.452;2023-02-26T15:05:48;5.32;99.99
13496;DHT22;6820;49.374;8.452;2023-02-26T15:22:59;5.09;99.99
13496;DHT22;6820;49.374;8.452;2023-02-26T15:27:14;5.04;99.99
13496;DHT22;6820;49.374;8.452;2023-02-26T15:31:18;4.88;99.99
13496;DHT22;6820;49.374;8.452;2023-02-26T15:35:28;4.71;99.99
13496;DHT22;6820;49.374;8.452;2023-02-26T15:39:32;4.64;99.99
13496;DHT22;6820;49.374;8.452;2023-02-26T15:43:33;4.80;99.99
13496;DHT22;6820;49.374;8.452;2023-02-26T15:47:35;4.86;99.99
13496;DHT22;6820;49.374;8.452;2023-02-26T15:51:37;4.80;99.99
13496;DHT22;6820;49.374;8.452;2023-02-26T15:55:44;4.71;99.99
13496;DHT22;6820;49.374;8.452;2023-02-26T15:59:51;4.65;99.99
13496;DHT22;6820;49.374;8.452;2023-02-26T16:03:58;4.68;99.99
13496;DHT22;6820;49.374;8.452;2023-02-26T16:08:01;4.68;99.99
13496;DHT22;6820;49.374;8.452;2023-02-26T16:12:07;4.77;99.99
13496;DHT22;6820;49.374;8.452;2023-02-26T16:16:23;4.83;99.99
13496;DHT22;6820;49.374;8.452;2023-02-26T16:20:36;4.75;99.99
13496;DHT22;6820;49.374;8.452;2023-02-26T16:24:40;4.65;99.99
13496;DHT22;6820;49.374;8.452;2023-02-26T16:28:42;4.53;99.99
13496;DHT22;6820;49.374;8.452;2023-02-26T16:32:49;4.47;99.99
13496;DHT22;6820;49.374;8.452;2023-02-26T16:36:53;4.39;99.99
13496;DHT22;6820;49.374;8.452;2023-02-26T16:40:57;4.28;99.99
13496;DHT22;6820;49.374;8.452;2023-02-26T16:45:15;4.11;99.99
13496;DHT22;6820;49.374;8.452;2023-02-26T16:49:19;4.02;99.99
13496;DHT22;6820;49.374;8.452;2023-02-26T16:53:31;3.95;99.99
13496;DHT22;6820;49.374;8.452;2023-02-26T16:57:38;3.88;99.99
13496;DHT22;6820;49.374;8.452;2023-02-26T17:05:58;3.96;99.99
13496;DHT22;6820;49.374;8.452;2023-02-26T17:10:16;3.96;99.99
13496;DHT22;6820;49.374;8.452;2023-02-26T17:14:39;4.00;99.99
13496;DHT22;6820;49.374;8.452;2023-02-26T17:18:46;4.00;99.99
13496;DHT22;6820;49.374;8.452;2023-02-26T17:22:48;4.02;99.99
13496;DHT22;6820;49.374;8.452;2023-02-26T17:26:50;3.99;99.99
13496;DHT22;6820;49.374;8.452;2023-02-26T17:30:52;3.96;99.99
13496;DHT22;6820;49.374;8.452;2023-02-26T17:34:54;3.92;99.99
13496;DHT22;6820;49.374;8.452;2023-02-26T17:38:56;3.84;99.99
13496;DHT22;6820;49.374;8.452;2023-02-26T17:42:58;3.78;99.99
13496;DHT22;6820;49.374;8.452;2023-02-26T17:47:00;3.75;99.99
13496;DHT22;6820;49.374;8.452;2023-02-26T17:51:02;3.71;99.99
13496;DHT22;6820;49.374;8.452;2023-02-26T17:55:04;3.64;99.99
13496;DHT22;6820;49.374;8.452;2023-02-26T17:59:06;3.62;99.99
13496;DHT22;6820;49.374;8.452;2023-02-26T18:03:10;3.59;99.99
13496;DHT22;6820;49.374;8.452;2023-02-26T18:07:13;3.59;99.99
13496;DHT22;6820;49.374;8.452;2023-02-26T18:11:18;3.57;99.99
13496;DHT22;6820;49.374;8.452;2023-02-26T18:15:22;3.57;99.99
13496;DHT22;6820;49.374;8.452;2023-02-26T18:19:24;3.54;99.99
13496;DHT22;6820;49.374;8.452;2023-02-26T18:23:25;3.53;99.99
13496;DHT22;6820;49.374;8.452;2023-02-26T18:27:27;3.50;99.99
13496;DHT22;6820;49.374;8.452;2023-02-26T18:31:30;3.49;99.99
13496;DHT22;6820;49.374;8.452;2023-02-26T18:35:35;3.45;99.99
13496;DHT22;6820;49.374;8.452;2023-02-26T18:39:38;3.44;99.99
13496;DHT22;6820;49.374;8.452;2023-02-26T18:43:39;3.39;99.99
13496;DHT22;6820;49.374;8.452;2023-02-26T18:47:41;3.41;99.99
13496;DHT22;6820;49.374;8.452;2023-02-26T18:51:44;3.39;99.99
13496;DHT22;6820;49.374;8.452;2023-02-26T18:55:46;3.35;99.99
13496;DHT22;6820;49.374;8.452;2023-02-26T18:59:50;3.34;99.99
13496;DHT22;6820;49.374;8.452;2023-02-26T19:03:52;3.22;99.99
13496;DHT22;6820;49.374;8.452;2023-02-26T19:07:54;3.16;99.99
13496;DHT22;6820;49.374;8.452;2023-02-26T19:11:55;3.07;99.99
13496;DHT22;6820;49.374;8.452;2023-02-26T19:15:57;3.01;99.99
13496;DHT22;6820;49.374;8.452;2023-02-26T19:19:59;2.95;99.99
13496;DHT22;6820;49.374;8.452;2023-02-26T19:24:00;2.86;99.99
13496;DHT22;6820;49.374;8.452;2023-02-26T19:28:04;2.80;99.99
13496;DHT22;6820;49.374;8.452;2023-02-26T19:32:06;2.77;99.99
13496;DHT22;6820;49.374;8.452;2023-02-26T19:36:09;2.73;99.99
13496;DHT22;6820;49.374;8.452;2023-02-26T19:40:11;2.73;99.99
13496;DHT22;6820;49.374;8.452;2023-02-26T19:44:16;2.71;99.99
13496;DHT22;6820;49.374;8.452;2023-02-26T19:48:18;2.68;99.99
13496;DHT22;6820;49.374;8.452;2023-02-26T19:52:21;2.65;99.99
13496;DHT22;6820;49.374;8.452;2023-02-26T19:56:23;2.59;99.99
13496;DHT22;6820;49.374;8.452;2023-02-26T20:00:25;2.56;99.99
13496;DHT22;6820;49.374;8.452;2023-02-26T20:04:27;2.51;99.99
13496;DHT22;6820;49.374;8.452;2023-02-26T20:08:29;2.47;99.99
13496;DHT22;6820;49.374;8.452;2023-02-26T20:12:30;2.45;99.99
13496;DHT22;6820;49.374;8.452;2023-02-26T20:16:32;2.45;99.99
13496;DHT22;6820;49.374;8.452;2023-02-26T20:20:34;2.38;99.99
13496;DHT22;6820;49.374;8.452;2023-02-26T20:24:36;2.38;99.99
13496;DHT22;6820;49.374;8.452;2023-02-26T20:28:38;2.36;99.99
13496;DHT22;6820;49.374;8.452;2023-02-26T20:32:40;2.33;99.99
13496;DHT22;6820;49.374;8.452;2023-02-26T20:36:42;2.30;99.99
13496;DHT22;6820;49.374;8.452;2023-02-26T20:40:46;2.27;99.99
13496;DHT22;6820;49.374;8.452;2023-02-26T20:44:48;2.25;99.99
13496;DHT22;6820;49.374;8.452;2023-02-26T20:48:50;2.20;99.99
13496;DHT22;6820;49.374;8.452;2023-02-26T20:52:51;2.18;99.99
13496;DHT22;6820;49.374;8.452;2023-02-26T20:56:53;2.18;99.99
13496;DHT22;6820;49.374;8.452;2023-02-26T21:00:55;2.12;99.99
13496;DHT22;6820;49.374;8.452;2023-02-26T21:04:57;2.08;99.99
13496;DHT22;6820;49.374;8.452;2023-02-26T21:08:59;2.09;99.99
13496;DHT22;6820;49.374;8.452;2023-02-26T21:13:02;2.05;99.99
13496;DHT22;6820;49.374;8.452;2023-02-26T21:17:03;2.04;99.99
13496;DHT22;6820;49.374;8.452;2023-02-26T21:21:05;2.01;99.99
13496;DHT22;6820;49.374;8.452;2023-02-26T21:25:07;2.01;99.99
13496;DHT22;6820;49.374;8.452;2023-02-26T21:29:09;1.93;99.99
13496;DHT22;6820;49.374;8.452;2023-02-26T21:33:10;1.89;99.99
13496;DHT22;6820;49.374;8.452;2023-02-26T21:37:13;1.86;99.99
13496;DHT22;6820;49.374;8.452;2023-02-26T21:41:15;1.83;99.99
13496;DHT22;6820;49.374;8.452;2023-02-26T21:45:16;1.82;99.99
13496;DHT22;6820;49.374;8.452;2023-02-26T21:49:18;1.77;99.99
13496;DHT22;6820;49.374;8.452;2023-02-26T21:53:20;1.72;99.99
13496;DHT22;6820;49.374;8.452;2023-02-26T21:57:22;1.74;99.99
13496;DHT22;6820;49.374;8.452;2023-02-26T22:01:25;1.68;99.99
13496;DHT22;6820;49.374;8.452;2023-02-26T22:05:27;1.63;99.99
13496;DHT22;6820;49.374;8.452;2023-02-26T22:09:28;1.61;99.99
13496;DHT22;6820;49.374;8.452;2023-02-26T22:13:30;1.57;99.99
13496;DHT22;6820;49.374;8.452;2023-02-26T22:17:32;1.54;99.99
13496;DHT22;6820;49.374;8.452;2023-02-26T22:21:33;1.54;99.99
13496;DHT22;6820;49.374;8.452;2023-02-26T22:25:35;1.53;99.99
13496;DHT22;6820;49.374;8.452;2023-02-26T22:29:36;1.50;99.99
13496;DHT22;6820;49.374;8.452;2023-02-26T22:33:39;1.50;99.99
13496;DHT22;6820;49.374;8.452;2023-02-26T22:37:41;1.49;99.99
13496;DHT22;6820;49.374;8.452;2023-02-26T22:41:43;1.43;99.99
13496;DHT22;6820;49.374;8.452;2023-02-26T22:45:45;1.44;99.99
13496;DHT22;6820;49.374;8.452;2023-02-26T22:49:48;1.38;99.99
13496;DHT22;6820;49.374;8.452;2023-02-26T22:53:50;1.35;99.99
13496;DHT22;6820;49.374;8.452;2023-02-26T22:57:51;1.34;99.99
13496;DHT22;6820;49.374;8.452;2023-02-26T23:01:53;1.34;99.99
13496;DHT22;6820;49.374;8.452;2023-02-26T23:05:55;1.34;99.99
13496;DHT22;6820;49.374;8.452;2023-02-26T23:09:57;1.32;99.99
13496;DHT22;6820;49.374;8.452;2023-02-26T23:13:59;1.31;99.99
13496;DHT22;6820;49.374;8.452;2023-02-26T23:18:00;1.31;99.99
13496;DHT22;6820;49.374;8.452;2023-02-26T23:22:02;1.28;99.99
13496;DHT22;6820;49.374;8.452;2023-02-26T23:26:04;1.24;99.99
13496;DHT22;6820;49.374;8.452;2023-02-26T23:30:06;1.25;99.99
13496;DHT22;6820;49.374;8.452;2023-02-26T23:34:08;1.20;99.99
13496;DHT22;6820;49.374;8.452;2023-02-26T23:38:11;1.14;99.99
13496;DHT22;6820;49.374;8.452;2023-02-26T23:42:13;1.08;99.99
13496;DHT22;6820;49.374;8.452;2023-02-26T23:46:15;1.08;99.99
13496;DHT22;6820;49.374;8.452;2023-02-26T23:50:16;1.02;99.99
13496;DHT22;6820;49.374;8.452;2023-02-26T23:54:18;1.00;99.99
13496;DHT22;6820;49.374;8.452;2023-02-26T23:58:19;0.99;99.99
